Latest Coastal Weather Observations for Whyalla

IDS60701

Issued at 4:35 pm CST Thursday 28 August 2014 (issued every 10 minutes, with the page automatically refreshed every 10 minutes)

About coastal observations | Map of coastal stations | Coastal observations for SA | Marine services | Other Formats
Station Details ID: 018120 Name: WHYALLA AERO Lat: -33.05 Lon: 137.52 Height: 6.5 m
Data from the previous 72 hours. | See also: Recent months at Whyalla
Date/Time
CST
Temp

°C
Wind Pressure Rain
since 9am
mm
Weather Cloud Vis
km
Sea
Height
m
Swell
Dir
 
Speed
knots
Gust
knots
hPa Trend Height
m
Period
s
Dir
28/04:30pm 23.0 ESE 8 11 1025.3 - 0.0 - - 10 - - - -
28/04:00pm 23.1 ESE 10 12 1025.3 - 0.0 - - 10 - - - -
28/03:30pm 23.3 ESE 10 13 1025.2 - 0.0 - - 10 - - - -
28/03:00pm 23.7 E 10 13 1025.4 - 0.0 - - 10 - - - -
28/02:30pm 23.5 E 11 13 1025.4 - 0.0 - - 10 - - - -
28/02:00pm 23.4 E 10 13 1025.7 - 0.0 - - 10 - - - -
28/01:30pm 22.6 E 10 13 1026.0 - 0.0 - - 10 - - - -
28/01:00pm 22.6 E 10 13 1026.4 - 0.0 - - 10 - - - -
28/12:30pm 22.1 E 9 12 1026.9 - 0.0 - - 10 - - - -
28/12:00pm 21.4 ESE 7 9 1027.4 - 0.0 - - 10 - - - -
28/11:30am 21.5 E 6 9 1027.7 - 0.0 - - 10 - - - -
28/11:00am 21.2 E 5 6 1028.1 - 0.0 - - 10 - - - -
28/10:30am 20.4 ENE 5 8 1028.3 - 0.0 - - 10 - - - -
28/10:00am 19.5 CALM 0 4 1028.5 - 0.0 - - 10 - - - -
28/09:30am 17.6 CALM 0 3 1028.6 - 0.0 - - 10 - - - -
28/09:00am 15.8 CALM 0 0 1028.5 - 0.0 - - 10 - - - -
28/08:30am 13.0 CALM 0 0 1028.5 - 0.0 - - 10 - - - -
28/08:00am 9.7 NW 4 5 1028.2 - 0.0 - - 10 - - - -
28/07:30am 6.2 NW 5 6 1027.8 - 0.0 - - 10 - - - -
28/07:00am 4.1 NW 5 6 1027.5 - 0.0 - - 10 - - - -
28/06:30am 3.6 NW 5 6 1027.2 - 0.0 - - 10 - - - -
28/06:00am 3.9 NW 5 6 1027.0 - 0.0 - - 10 - - - -
28/05:30am 4.2 NNW 5 6 1026.7 - 0.0 - - 10 - - - -
28/05:00am 4.1 NNW 5 6 1026.6 - 0.0 - - 10 - - - -
28/04:30am 4.2 NNW 5 6 1026.5 - 0.0 - - 10 - - - -
28/04:00am 5.0 NW 5 6 1026.4 - 0.0 - - 10 - - - -
28/03:30am 5.2 NW 6 6 1026.4 - 0.0 - - 10 - - - -
28/03:00am 5.4 NW 5 6 1026.4 - 0.0 - - 10 - - - -
28/02:30am 5.0 NW 5 6 1026.6 - 0.0 - - 10 - - - -
28/02:00am 5.7 WNW 5 5 1026.6 - 0.0 - - 10 - - - -
28/01:30am 5.6 WNW 6 7 1026.8 - 0.0 - - 10 - - - -
28/01:00am 5.9 CALM 0 0 1026.9 - 0.0 - - 10 - - - -
28/12:30am 6.4 W 4 4 1026.9 - 0.0 - - 10 - - - -
28/12:00am 6.5 W 3 4 1027.0 - 0.0 - - 10 - - - -
 
Date/Time
CST
Temp

°C
Wind Pressure Rain
since 9am
mm
Weather Cloud Vis
km
Sea
Height
m
Swell
Dir
 
Speed
knots
Gust
knots
hPa Trend Height
m
Period
s
Dir
27/11:30pm 7.4 WSW 4 5 1027.2 - 0.0 - - 10 - - - -
27/11:00pm 7.4 WSW 5 6 1027.2 - 0.0 - - 10 - - - -
27/10:30pm 7.7 WNW 5 6 1027.2 - 0.0 - - 10 - - - -
27/10:00pm 9.0 WNW 3 4 1027.0 - 0.0 - - 10 - - - -
27/09:30pm 8.8 WNW 4 5 1027.0 - 0.0 - - 10 - - - -
27/09:00pm 10.0 W 4 5 1026.8 - 0.0 - - 10 - - - -
27/08:30pm 10.2 W 5 5 1026.5 - 0.0 - - 10 - - - -
27/08:00pm 10.8 SE 1 3 1026.2 - 0.0 - - 10 - - - -
27/07:30pm 13.2 SE 5 5 1025.9 - 0.0 - - 10 - - - -
27/07:00pm 14.5 ESE 5 6 1025.3 - 0.0 - - 10 - - - -
27/06:30pm 15.7 SE 7 8 1025.0 - 0.0 - - 10 - - - -
27/06:00pm 16.5 SE 6 9 1024.9 - 0.0 - - 10 - - - -
27/05:30pm 18.1 ESE 7 10 1024.8 - 0.0 - - 10 - - - -
27/05:00pm 19.3 ESE 9 12 1024.5 - 0.0 - - 10 - - - -
27/04:30pm 20.5 ESE 9 11 1024.4 - 0.0 - - 10 - - - -
27/04:00pm 20.8 ESE 10 12 1024.3 - 0.0 - - 10 - - - -
27/03:30pm 20.9 ESE 10 13 1024.4 - 0.0 - - 10 - - - -
27/03:00pm 20.3 ESE 11 14 1024.5 - 0.0 - - 10 - - - -
27/02:30pm 20.8 ESE 10 14 1024.5 - 0.0 - - 10 - - - -
27/02:00pm 20.2 ESE 10 12 1024.8 - 0.0 - - 10 - - - -
27/01:30pm 20.4 E 9 12 1024.7 - 0.0 - - 10 - - - -
27/01:00pm 19.4 ESE 9 11 1025.1 - 0.0 - - 10 - - - -
27/12:30pm 20.1 E 8 10 1025.5 - 0.0 - - 10 - - - -
27/12:00pm 20.0 E 8 11 1025.8 - 0.0 - - 10 - - - -
27/11:30am 19.4 E 6 9 1026.4 - 0.0 - - 10 - - - -
27/11:00am 19.3 N 3 8 1026.7 - 0.0 - - 10 - - - -
27/10:30am 18.0 WNW 1 4 1026.9 - 0.0 - - 10 - - - -
27/10:26am 18.1 N 1 4 1026.9 - 0.0 - - 10 - - - -
27/10:12am 17.0 CALM 0 2 1027.0 - 0.0 - - 5 - - - -
27/10:00am 15.7 SSW 2 4 1027.0 - 0.0 - - 10 - - - -
27/09:30am 14.2 S 2 4 1027.0 - 0.0 - - 10 - - - -
27/09:00am 11.6 CALM 0 4 1026.7 - 0.0 - - 10 - - - -
27/08:30am 8.7 NW 3 5 1026.8 - 0.0 - - 10 - - - -
27/08:00am 6.1 WNW 5 6 1026.4 - 0.0 - - 10 - - - -
27/07:30am 4.6 NNW 3 5 1025.7 - 0.0 - - 10 - - - -
27/07:00am 2.9 WNW 4 6 1025.5 - 0.0 - - 10 - - - -
27/06:30am 2.6 NW 5 6 1024.9 - 0.0 - - 10 - - - -
27/06:00am 3.0 NW 5 5 1024.5 - 0.0 - - 10 - - - -
27/05:30am 3.4 NNW 5 5 1024.3 - 0.0 - - 10 - - - -
27/05:00am 3.4 N 5 6 1024.1 - 0.0 - - 10 - - - -
27/04:30am 3.4 NNW 5 6 1024.0 - 0.0 - - 10 - - - -
27/04:00am 3.2 NNW 6 7 1023.9 - 0.0 - - 10 - - - -
27/03:30am 3.0 NW 5 6 1024.0 - 0.0 - - 10 - - - -
27/03:00am 3.7 NW 5 7 1023.9 - 0.0 - - 10 - - - -
27/02:30am 3.8 NNW 5 6 1023.8 - 0.0 - - 10 - - - -
27/02:00am 4.7 NW 5 6 1023.9 - 0.0 - - 10 - - - -
27/01:30am 5.0 NNW 5 6 1024.0 - 0.0 - - 10 - - - -
27/01:00am 6.2 WNW 4 5 1024.2 - 0.0 - - 10 - - - -
27/12:30am 6.0 WNW 4 5 1024.3 - 0.0 - - 10 - - - -
27/12:00am 5.5 W 5 5 1024.5 - 0.0 - - 10 - - - -
 
Date/Time
CST
Temp

°C
Wind Pressure Rain
since 9am
mm
Weather Cloud Vis
km
Sea
Height
m
Swell
Dir
 
Speed
knots
Gust
knots
hPa Trend Height
m
Period
s
Dir
26/11:30pm 5.5 W 3 4 1024.4 - 0.0 - - 10 - - - -
26/11:00pm 6.6 W 3 4 1024.4 - 0.0 - - 10 - - - -
26/10:30pm 6.3 WNW 4 5 1024.3 - 0.0 - - 10 - - - -
26/10:00pm 7.0 NW 3 4 1024.3 - 0.0 - - 10 - - - -
26/09:30pm 7.3 NW 3 4 1024.5 - 0.0 - - 10 - - - -
26/09:00pm 8.0 SSW 3 4 1024.5 - 0.0 - - 10 - - - -
26/08:30pm 8.4 S 2 4 1024.2 - 0.0 - - 10 - - - -
26/08:00pm 9.9 SSW 4 6 1024.2 - 0.0 - - 10 - - - -
26/07:30pm 10.8 SSW 5 6 1023.9 - 0.0 - - 10 - - - -
26/07:00pm 11.6 S 4 5 1023.6 - 0.0 - - 10 - - - -
26/06:30pm 12.7 S 4 5 1023.3 - 0.0 - - 10 - - - -
26/06:00pm 14.5 SSE 5 8 1023.1 - 0.0 - - 10 - - - -
26/05:30pm 16.5 SSE 5 7 1023.0 - 0.0 - - 10 - - - -
26/05:00pm 17.3 SE 6 7 1022.9 - 0.0 - - 10 - - - -
26/04:30pm 17.7 ESE 9 11 1022.6 - 0.0 - - 10 - - - -
26/04:00pm 18.3 ESE 8 10 1022.4 - 0.0 - - 10 - - - -
26/03:30pm 18.7 E 8 10 1022.5 - 0.0 - - 10 - - - -
26/03:00pm 18.7 ESE 8 11 1022.8 - 0.0 - - 10 - - - -
26/02:30pm 18.7 ESE 8 10 1023.2 - 0.0 - - 10 - - - -
26/02:00pm 18.2 ESE 7 10 1023.4 - 0.0 - - 10 - - - -
26/01:30pm 18.8 SE 6 8 1023.6 - 0.0 - - 10 - - - -
26/01:00pm 18.5 ESE 5 7 1024.1 - 0.0 - - 10 - - - -
26/12:30pm 16.8 SSE 4 7 1024.6 - 0.0 - - 10 - - - -
26/12:00pm 16.4 SE 3 7 1025.3 - 0.0 - - 10 - - - -
26/11:30am 15.0 E 6 9 1025.9 - 0.0 - - 10 - - - -
26/11:00am 15.1 ESE 5 8 1026.2 - 0.0 - - 10 - - - -
26/10:30am 13.9 ESE 4 7 1026.6 - 0.0 - - 10 - - - -
26/10:16am 12.9 NE 3 5 1026.7 - 0.0 - Partly cloudy 10 - - - -
26/10:00am 11.6 N 1 3 1026.9 - 0.0 - Partly cloudy 10 - - - -
26/09:57am 11.4 NNE 1 3 1026.9 - 0.0 - Partly cloudy 10 - - - -
26/09:30am 10.0 W 3 4 1027.1 - 0.0 - Cloudy 0.6 - - - -
26/09:00am 9.3 NW 3 4 1027.1 - 0.0 - Cloudy 0.1 - - - -
26/08:30am 8.4 NW 3 4 1027.0 - 0.0 - Cloudy 0.1 - - - -
26/08:00am 7.4 NW 4 5 1026.8 - 0.0 - Cloudy 0.1 - - - -
26/07:30am 6.1 NW 4 5 1026.7 - 0.0 - Cloudy 0.3 - - - -
26/07:00am 4.3 NW 5 7 1026.3 - 0.0 - Cloudy 5 - - - -
26/06:40am 3.4 NW 5 6 1026.2 - 0.0 - Cloudy 5 - - - -
26/06:30am 3.1 NW 5 5 1026.0 - 0.0 - Partly cloudy 8 - - - -
26/06:13am 2.8 WNW 5 6 1025.9 - 0.0 - Partly cloudy 7 - - - -
26/06:10am 2.8 WNW 5 6 1025.9 - 0.0 - Partly cloudy 7 - - - -
26/06:00am 2.9 WNW 5 5 1025.9 - 0.0 - Mostly clear 5 - - - -
26/05:36am 2.8 WNW 4 5 1025.8 - 0.0 - - 5 - - - -
26/05:30am 3.2 WNW 5 5 1025.8 - 0.0 - - 7 - - - -
26/05:06am 3.5 W 5 6 1025.7 - 0.0 - - 7 - - - -
26/05:00am 3.8 W 5 5 1025.7 - 0.0 - - 6 - - - -
26/04:47am 3.4 W 5 6 1025.7 - 0.0 - - 5 - - - -
26/04:30am 3.5 W 5 6 1025.6 - 0.0 - - 10 - - - -
26/04:00am 4.5 WNW 5 6 1025.5 - 0.0 - - 10 - - - -
26/03:44am 4.4 WNW 4 5 1025.6 - 0.0 - - 10 - - - -
26/03:31am 4.4 WNW 3 4 1025.6 - 0.0 - - 5 - - - -
26/03:30am 4.5 W 3 4 1025.6 - 0.0 - - 6 - - - -
26/03:00am 5.7 W 5 6 1025.8 - 0.0 - - 9 - - - -
26/02:30am 6.4 WSW 5 7 1026.3 - 0.0 - - 9 - - - -
26/02:00am 6.3 WSW 6 6 1026.3 - 0.0 - Partly cloudy 8 - - - -
26/01:30am 6.6 WSW 7 7 1026.7 - 0.0 - - 10 - - - -
26/01:00am 5.6 WSW 5 6 1026.9 - 0.0 - - 10 - - - -
26/12:30am 6.2 W 4 4 1027.1 - 0.0 - - 10 - - - -
26/12:00am 6.0 WNW 2 3 1027.3 - 0.0 - - 10 - - - -
 
Date/Time
CST
Temp

°C
Wind Pressure Rain
since 9am
mm
Weather Cloud Vis
km
Sea
Height
m
Swell
Dir
 
Speed
knots
Gust
knots
hPa Trend Height
m
Period
s
Dir
25/11:30pm 6.9 W 2 4 1027.3 - 0.0 - - 10 - - - -
25/11:00pm 6.4 SW 3 5 1027.5 - 0.0 - - 10 - - - -
25/10:30pm 6.9 W 3 5 1027.7 - 0.0 - - 10 - - - -
25/10:00pm 7.5 SW 3 3 1027.7 - 0.0 - - 10 - - - -
25/09:30pm 9.5 SSW 5 6 1027.9 - 0.0 - - 10 - - - -
25/09:00pm 10.9 S 5 6 1027.8 - 0.0 - - 10 - - - -
25/08:30pm 11.5 S 7 9 1027.7 - 0.0 - - 10 - - - -
25/08:00pm 11.6 S 7 10 1027.8 - 0.0 - - 10 - - - -
25/07:30pm 11.3 S 7 8 1027.6 - 0.0 - - 10 - - - -
25/07:00pm 10.5 SSW 6 7 1027.3 - 0.0 - - 10 - - - -
25/06:30pm 11.5 SSW 4 5 1027.2 - 0.0 - - 10 - - - -
25/06:00pm 12.8 SSW 5 7 1026.9 - 0.0 - - 10 - - - -
25/05:30pm 14.1 S 7 9 1026.8 - 0.0 - - 10 - - - -
25/05:00pm 15.2 S 7 9 1026.6 - 0.0 - - 10 - - - -

Other Formats:

Comma delimited format used in spreadsheet applications
http://www.bom.gov.au/fwo/IDS60701/IDS60701.95664.axf

JavaScript Object Notation format (JSON) in row-major order
http://www.bom.gov.au/fwo/IDS60701/IDS60701.95664.json